Terminal Aerodrome Forecast
Issued by NWS Tuscon, AZ

Home | Current Version | Previous Version | Text Only | Print | Product List | Glossary On
Versions: 1 2 3 4 5 6 7 8 9 10 11 12 13 14 15
489
FTUS45 KTWC 031140
TAFTUS
TAF
KTUS 031140Z 0312/0412 14007KT P6SM SKC
     FM031500 VRB03KT P6SM SKC
     FM032000 32006KT P6SM SKC
     FM040800 13010KT P6SM SKC=

USA.gov is the U.S. government's official web portal to all federal, state and local government web resources and services.